sensor_id;sensor_type;location;lat;lon;timestamp;temperature;humidity
3134;DHT22;1577;49.912;10.924;2023-12-20T00:00:57;6.20;99.90
3134;DHT22;1577;49.912;10.924;2023-12-20T00:03:22;6.20;99.90
3134;DHT22;1577;49.912;10.924;2023-12-20T00:05:49;6.20;99.90
3134;DHT22;1577;49.912;10.924;2023-12-20T00:08:15;6.20;99.90
3134;DHT22;1577;49.912;10.924;2023-12-20T00:10:41;6.10;99.90
3134;DHT22;1577;49.912;10.924;2023-12-20T00:13:07;6.10;99.90
3134;DHT22;1577;49.912;10.924;2023-12-20T00:15:33;6.10;99.90
3134;DHT22;1577;49.912;10.924;2023-12-20T00:17:59;6.10;99.90
3134;DHT22;1577;49.912;10.924;2023-12-20T00:20:26;6.20;99.90
3134;DHT22;1577;49.912;10.924;2023-12-20T00:22:52;6.20;99.90
3134;DHT22;1577;49.912;10.924;2023-12-20T00:25:17;6.20;99.90
3134;DHT22;1577;49.912;10.924;2023-12-20T00:27:43;6.20;99.90
3134;DHT22;1577;49.912;10.924;2023-12-20T00:30:09;6.10;99.90
3134;DHT22;1577;49.912;10.924;2023-12-20T00:32:35;6.10;99.90
3134;DHT22;1577;49.912;10.924;2023-12-20T00:35:01;6.10;99.90
3134;DHT22;1577;49.912;10.924;2023-12-20T00:37:27;6.20;99.90
3134;DHT22;1577;49.912;10.924;2023-12-20T00:39:52;6.20;99.90
3134;DHT22;1577;49.912;10.924;2023-12-20T00:42:18;6.20;99.90
3134;DHT22;1577;49.912;10.924;2023-12-20T00:44:44;6.20;99.90
3134;DHT22;1577;49.912;10.924;2023-12-20T00:47:10;6.10;99.90
3134;DHT22;1577;49.912;10.924;2023-12-20T00:49:35;6.10;99.90
3134;DHT22;1577;49.912;10.924;2023-12-20T00:52:01;6.20;99.90
3134;DHT22;1577;49.912;10.924;2023-12-20T00:54:26;6.30;99.90
3134;DHT22;1577;49.912;10.924;2023-12-20T00:56:52;6.20;99.90
3134;DHT22;1577;49.912;10.924;2023-12-20T00:59:19;6.30;99.90
3134;DHT22;1577;49.912;10.924;2023-12-20T01:01:44;6.30;99.90
3134;DHT22;1577;49.912;10.924;2023-12-20T01:04:10;6.30;99.90
3134;DHT22;1577;49.912;10.924;2023-12-20T01:06:36;6.30;99.90
3134;DHT22;1577;49.912;10.924;2023-12-20T01:09:01;6.20;99.90
3134;DHT22;1577;49.912;10.924;2023-12-20T01:11:28;6.20;99.90
3134;DHT22;1577;49.912;10.924;2023-12-20T01:13:53;6.20;99.90
3134;DHT22;1577;49.912;10.924;2023-12-20T01:16:19;6.30;99.90
3134;DHT22;1577;49.912;10.924;2023-12-20T01:18:44;6.30;99.90
3134;DHT22;1577;49.912;10.924;2023-12-20T01:21:10;6.30;99.90
3134;DHT22;1577;49.912;10.924;2023-12-20T01:23:36;6.30;99.90
3134;DHT22;1577;49.912;10.924;2023-12-20T01:26:01;6.30;99.90
3134;DHT22;1577;49.912;10.924;2023-12-20T01:28:28;6.20;99.90
3134;DHT22;1577;49.912;10.924;2023-12-20T01:30:53;6.30;99.90
3134;DHT22;1577;49.912;10.924;2023-12-20T01:33:19;6.20;99.90
3134;DHT22;1577;49.912;10.924;2023-12-20T01:35:45;6.20;99.90
3134;DHT22;1577;49.912;10.924;2023-12-20T01:38:10;6.10;99.90
3134;DHT22;1577;49.912;10.924;2023-12-20T01:40:36;6.20;99.90
3134;DHT22;1577;49.912;10.924;2023-12-20T01:43:06;6.10;99.90
3134;DHT22;1577;49.912;10.924;2023-12-20T01:45:32;6.20;99.90
3134;DHT22;1577;49.912;10.924;2023-12-20T01:47:58;6.20;99.90
3134;DHT22;1577;49.912;10.924;2023-12-20T01:50:25;6.20;99.90
3134;DHT22;1577;49.912;10.924;2023-12-20T01:52:51;6.20;99.90
3134;DHT22;1577;49.912;10.924;2023-12-20T01:55:20;6.10;99.90
3134;DHT22;1577;49.912;10.924;2023-12-20T01:57:47;6.10;99.90
3134;DHT22;1577;49.912;10.924;2023-12-20T02:00:13;6.10;99.90
3134;DHT22;1577;49.912;10.924;2023-12-20T02:02:40;6.10;99.90
3134;DHT22;1577;49.912;10.924;2023-12-20T02:05:07;6.10;99.90
3134;DHT22;1577;49.912;10.924;2023-12-20T02:07:32;6.10;99.90
3134;DHT22;1577;49.912;10.924;2023-12-20T02:10:01;6.10;99.90
3134;DHT22;1577;49.912;10.924;2023-12-20T02:12:27;6.00;99.90
3134;DHT22;1577;49.912;10.924;2023-12-20T02:14:53;6.10;99.90
3134;DHT22;1577;49.912;10.924;2023-12-20T02:17:20;5.90;99.90
3134;DHT22;1577;49.912;10.924;2023-12-20T02:19:45;6.00;99.90
3134;DHT22;1577;49.912;10.924;2023-12-20T02:22:12;6.00;99.90
3134;DHT22;1577;49.912;10.924;2023-12-20T02:24:38;5.90;99.90
3134;DHT22;1577;49.912;10.924;2023-12-20T02:27:06;6.00;99.90
3134;DHT22;1577;49.912;10.924;2023-12-20T02:29:33;5.90;99.90
3134;DHT22;1577;49.912;10.924;2023-12-20T02:31:59;6.00;99.90
3134;DHT22;1577;49.912;10.924;2023-12-20T02:34:24;5.90;99.90
3134;DHT22;1577;49.912;10.924;2023-12-20T02:36:50;6.00;99.90
3134;DHT22;1577;49.912;10.924;2023-12-20T02:39:15;5.90;99.90
3134;DHT22;1577;49.912;10.924;2023-12-20T02:41:41;5.90;99.90
3134;DHT22;1577;49.912;10.924;2023-12-20T02:44:07;5.90;99.90
3134;DHT22;1577;49.912;10.924;2023-12-20T02:46:32;5.90;99.90
3134;DHT22;1577;49.912;10.924;2023-12-20T02:48:58;5.90;99.90
3134;DHT22;1577;49.912;10.924;2023-12-20T02:51:23;5.90;99.90
3134;DHT22;1577;49.912;10.924;2023-12-20T02:53:49;5.80;99.90
3134;DHT22;1577;49.912;10.924;2023-12-20T02:56:14;5.90;99.90
3134;DHT22;1577;49.912;10.924;2023-12-20T02:58:40;5.90;99.90
3134;DHT22;1577;49.912;10.924;2023-12-20T03:01:06;5.90;99.90
3134;DHT22;1577;49.912;10.924;2023-12-20T03:03:31;5.90;99.90
3134;DHT22;1577;49.912;10.924;2023-12-20T03:05:57;5.90;99.90
3134;DHT22;1577;49.912;10.924;2023-12-20T03:08:23;5.90;99.90
3134;DHT22;1577;49.912;10.924;2023-12-20T03:10:48;5.80;99.90
3134;DHT22;1577;49.912;10.924;2023-12-20T03:13:14;5.80;99.90
3134;DHT22;1577;49.912;10.924;2023-12-20T03:15:40;5.80;99.90
3134;DHT22;1577;49.912;10.924;2023-12-20T03:18:05;5.80;99.90
3134;DHT22;1577;49.912;10.924;2023-12-20T03:20:31;5.80;99.90
3134;DHT22;1577;49.912;10.924;2023-12-20T03:23:00;5.80;99.90
3134;DHT22;1577;49.912;10.924;2023-12-20T03:25:26;5.80;99.90
3134;DHT22;1577;49.912;10.924;2023-12-20T03:27:52;5.80;99.90
3134;DHT22;1577;49.912;10.924;2023-12-20T03:30:18;5.80;99.90
3134;DHT22;1577;49.912;10.924;2023-12-20T03:32:44;5.70;99.90
3134;DHT22;1577;49.912;10.924;2023-12-20T03:35:10;5.80;99.90
3134;DHT22;1577;49.912;10.924;2023-12-20T03:37:36;5.80;99.90
3134;DHT22;1577;49.912;10.924;2023-12-20T03:40:02;5.80;99.90
3134;DHT22;1577;49.912;10.924;2023-12-20T03:42:28;5.80;99.90
3134;DHT22;1577;49.912;10.924;2023-12-20T03:44:54;5.80;99.90
3134;DHT22;1577;49.912;10.924;2023-12-20T03:47:20;5.70;99.90
3134;DHT22;1577;49.912;10.924;2023-12-20T03:49:45;5.70;99.90
3134;DHT22;1577;49.912;10.924;2023-12-20T03:52:11;5.70;99.90
3134;DHT22;1577;49.912;10.924;2023-12-20T03:54:37;5.70;99.90
3134;DHT22;1577;49.912;10.924;2023-12-20T03:57:03;5.70;99.90
3134;DHT22;1577;49.912;10.924;2023-12-20T03:59:29;5.70;99.90
3134;DHT22;1577;49.912;10.924;2023-12-20T04:01:54;5.70;99.90
3134;DHT22;1577;49.912;10.924;2023-12-20T04:04:20;5.60;99.90
3134;DHT22;1577;49.912;10.924;2023-12-20T04:06:46;5.60;99.90
3134;DHT22;1577;49.912;10.924;2023-12-20T04:09:11;5.60;99.90
3134;DHT22;1577;49.912;10.924;2023-12-20T04:11:37;5.60;99.90
3134;DHT22;1577;49.912;10.924;2023-12-20T04:14:03;5.60;99.90
3134;DHT22;1577;49.912;10.924;2023-12-20T04:16:30;5.60;99.90
3134;DHT22;1577;49.912;10.924;2023-12-20T04:18:56;5.50;99.90
3134;DHT22;1577;49.912;10.924;2023-12-20T04:21:21;5.50;99.90
3134;DHT22;1577;49.912;10.924;2023-12-20T04:23:47;5.60;99.90
3134;DHT22;1577;49.912;10.924;2023-12-20T04:26:12;5.60;99.90
3134;DHT22;1577;49.912;10.924;2023-12-20T04:28:38;5.50;99.90
3134;DHT22;1577;49.912;10.924;2023-12-20T04:31:03;5.60;99.90
3134;DHT22;1577;49.912;10.924;2023-12-20T04:33:29;5.60;99.90
3134;DHT22;1577;49.912;10.924;2023-12-20T04:35:55;5.60;99.90
3134;DHT22;1577;49.912;10.924;2023-12-20T04:38:20;5.60;99.90
3134;DHT22;1577;49.912;10.924;2023-12-20T04:40:46;5.60;99.90
3134;DHT22;1577;49.912;10.924;2023-12-20T04:43:13;5.60;99.90
3134;DHT22;1577;49.912;10.924;2023-12-20T04:45:38;5.40;99.90
3134;DHT22;1577;49.912;10.924;2023-12-20T04:48:04;5.30;99.90
3134;DHT22;1577;49.912;10.924;2023-12-20T04:50:30;5.40;99.90
3134;DHT22;1577;49.912;10.924;2023-12-20T04:52:56;5.40;99.90
3134;DHT22;1577;49.912;10.924;2023-12-20T04:55:21;5.40;99.90
3134;DHT22;1577;49.912;10.924;2023-12-20T04:57:47;5.50;99.90
3134;DHT22;1577;49.912;10.924;2023-12-20T05:00:13;5.50;99.90
3134;DHT22;1577;49.912;10.924;2023-12-20T05:02:40;5.50;99.90
3134;DHT22;1577;49.912;10.924;2023-12-20T05:05:06;5.50;99.90
3134;DHT22;1577;49.912;10.924;2023-12-20T05:07:32;5.50;99.90
3134;DHT22;1577;49.912;10.924;2023-12-20T05:09:58;5.60;99.90
3134;DHT22;1577;49.912;10.924;2023-12-20T05:12:24;5.60;99.90
3134;DHT22;1577;49.912;10.924;2023-12-20T05:14:51;5.60;99.90
3134;DHT22;1577;49.912;10.924;2023-12-20T05:17:17;5.60;99.90
3134;DHT22;1577;49.912;10.924;2023-12-20T05:19:42;5.60;99.90
3134;DHT22;1577;49.912;10.924;2023-12-20T05:22:08;5.60;99.90
3134;DHT22;1577;49.912;10.924;2023-12-20T05:24:34;5.70;99.90
3134;DHT22;1577;49.912;10.924;2023-12-20T05:26:59;5.60;99.90
3134;DHT22;1577;49.912;10.924;2023-12-20T05:29:25;5.70;99.90
3134;DHT22;1577;49.912;10.924;2023-12-20T05:31:50;5.80;99.90
3134;DHT22;1577;49.912;10.924;2023-12-20T05:34:16;5.70;99.90
3134;DHT22;1577;49.912;10.924;2023-12-20T05:36:42;5.70;99.90
3134;DHT22;1577;49.912;10.924;2023-12-20T05:39:07;5.70;99.90
3134;DHT22;1577;49.912;10.924;2023-12-20T05:41:33;5.70;99.90
3134;DHT22;1577;49.912;10.924;2023-12-20T05:43:58;5.70;99.90
3134;DHT22;1577;49.912;10.924;2023-12-20T05:46:25;5.70;99.90
3134;DHT22;1577;49.912;10.924;2023-12-20T05:48:50;5.70;99.90
3134;DHT22;1577;49.912;10.924;2023-12-20T05:51:17;5.80;99.90
3134;DHT22;1577;49.912;10.924;2023-12-20T05:53:44;5.80;99.90
3134;DHT22;1577;49.912;10.924;2023-12-20T05:56:10;5.70;99.90
3134;DHT22;1577;49.912;10.924;2023-12-20T05:58:36;5.80;99.90
3134;DHT22;1577;49.912;10.924;2023-12-20T06:01:04;5.70;99.90
3134;DHT22;1577;49.912;10.924;2023-12-20T06:03:29;5.70;99.90
3134;DHT22;1577;49.912;10.924;2023-12-20T06:05:55;5.70;99.90
3134;DHT22;1577;49.912;10.924;2023-12-20T06:08:21;5.70;99.90
3134;DHT22;1577;49.912;10.924;2023-12-20T06:10:46;5.80;99.90
3134;DHT22;1577;49.912;10.924;2023-12-20T06:13:12;5.80;99.90
3134;DHT22;1577;49.912;10.924;2023-12-20T06:15:39;5.80;99.90
3134;DHT22;1577;49.912;10.924;2023-12-20T06:18:05;5.80;99.90
3134;DHT22;1577;49.912;10.924;2023-12-20T06:20:31;5.80;99.90
3134;DHT22;1577;49.912;10.924;2023-12-20T06:22:57;5.80;99.90
3134;DHT22;1577;49.912;10.924;2023-12-20T06:25:23;5.80;99.90
3134;DHT22;1577;49.912;10.924;2023-12-20T06:27:48;5.70;99.90
3134;DHT22;1577;49.912;10.924;2023-12-20T06:30:14;5.80;99.90
3134;DHT22;1577;49.912;10.924;2023-12-20T06:32:39;5.90;99.90
3134;DHT22;1577;49.912;10.924;2023-12-20T06:35:05;5.90;99.90
3134;DHT22;1577;49.912;10.924;2023-12-20T06:37:31;5.80;99.90
3134;DHT22;1577;49.912;10.924;2023-12-20T06:39:57;5.80;99.90
3134;DHT22;1577;49.912;10.924;2023-12-20T06:42:23;5.90;99.90
3134;DHT22;1577;49.912;10.924;2023-12-20T06:44:48;5.80;99.90
3134;DHT22;1577;49.912;10.924;2023-12-20T06:47:14;5.80;99.90
3134;DHT22;1577;49.912;10.924;2023-12-20T06:49:40;5.70;99.90
3134;DHT22;1577;49.912;10.924;2023-12-20T06:52:06;5.80;99.90
3134;DHT22;1577;49.912;10.924;2023-12-20T06:54:31;5.70;99.90
3134;DHT22;1577;49.912;10.924;2023-12-20T06:56:59;5.70;99.90
3134;DHT22;1577;49.912;10.924;2023-12-20T06:59:25;5.70;99.90
3134;DHT22;1577;49.912;10.924;2023-12-20T07:01:51;5.70;99.90
3134;DHT22;1577;49.912;10.924;2023-12-20T07:04:17;5.70;99.90
3134;DHT22;1577;49.912;10.924;2023-12-20T07:06:47;5.70;99.90
3134;DHT22;1577;49.912;10.924;2023-12-20T07:09:13;5.70;99.90
3134;DHT22;1577;49.912;10.924;2023-12-20T07:11:39;5.70;99.90
3134;DHT22;1577;49.912;10.924;2023-12-20T07:14:05;5.80;99.90
3134;DHT22;1577;49.912;10.924;2023-12-20T07:16:31;5.70;99.90
3134;DHT22;1577;49.912;10.924;2023-12-20T07:18:57;5.70;99.90
3134;DHT22;1577;49.912;10.924;2023-12-20T07:21:23;5.70;99.90
3134;DHT22;1577;49.912;10.924;2023-12-20T07:23:48;5.70;99.90
3134;DHT22;1577;49.912;10.924;2023-12-20T07:26:14;5.70;99.90
3134;DHT22;1577;49.912;10.924;2023-12-20T07:28:40;5.60;99.90
3134;DHT22;1577;49.912;10.924;2023-12-20T07:31:09;5.50;99.90
3134;DHT22;1577;49.912;10.924;2023-12-20T07:33:34;5.50;99.90
3134;DHT22;1577;49.912;10.924;2023-12-20T07:36:00;5.50;99.90
3134;DHT22;1577;49.912;10.924;2023-12-20T07:38:26;5.50;99.90
3134;DHT22;1577;49.912;10.924;2023-12-20T07:40:51;5.50;99.90
3134;DHT22;1577;49.912;10.924;2023-12-20T07:43:17;5.40;99.90
3134;DHT22;1577;49.912;10.924;2023-12-20T07:45:43;5.40;99.90
3134;DHT22;1577;49.912;10.924;2023-12-20T07:48:08;5.40;99.90
3134;DHT22;1577;49.912;10.924;2023-12-20T07:50:34;5.60;99.90
3134;DHT22;1577;49.912;10.924;2023-12-20T07:52:59;5.70;99.90
3134;DHT22;1577;49.912;10.924;2023-12-20T07:55:26;5.80;99.90
3134;DHT22;1577;49.912;10.924;2023-12-20T07:57:52;5.80;99.90
3134;DHT22;1577;49.912;10.924;2023-12-20T08:00:18;5.80;99.90
3134;DHT22;1577;49.912;10.924;2023-12-20T08:02:44;5.90;99.90
3134;DHT22;1577;49.912;10.924;2023-12-20T08:05:10;5.90;99.90
3134;DHT22;1577;49.912;10.924;2023-12-20T08:07:36;5.90;99.90
3134;DHT22;1577;49.912;10.924;2023-12-20T08:10:01;5.90;99.90
3134;DHT22;1577;49.912;10.924;2023-12-20T08:12:27;5.90;99.90
3134;DHT22;1577;49.912;10.924;2023-12-20T08:14:54;5.90;99.90
3134;DHT22;1577;49.912;10.924;2023-12-20T08:17:20;5.90;99.90
3134;DHT22;1577;49.912;10.924;2023-12-20T08:19:45;5.80;99.90
3134;DHT22;1577;49.912;10.924;2023-12-20T08:22:11;5.70;99.90
3134;DHT22;1577;49.912;10.924;2023-12-20T08:24:37;5.70;99.90
3134;DHT22;1577;49.912;10.924;2023-12-20T08:27:03;5.80;99.90
3134;DHT22;1577;49.912;10.924;2023-12-20T08:29:29;5.80;99.90
3134;DHT22;1577;49.912;10.924;2023-12-20T08:31:55;5.80;99.90
3134;DHT22;1577;49.912;10.924;2023-12-20T08:34:22;6.00;99.90
3134;DHT22;1577;49.912;10.924;2023-12-20T08:36:49;6.30;99.90
3134;DHT22;1577;49.912;10.924;2023-12-20T08:39:15;6.60;99.90
3134;DHT22;1577;49.912;10.924;2023-12-20T08:41:41;6.90;99.90
3134;DHT22;1577;49.912;10.924;2023-12-20T08:44:06;7.10;99.90
3134;DHT22;1577;49.912;10.924;2023-12-20T08:46:32;7.20;99.90
3134;DHT22;1577;49.912;10.924;2023-12-20T08:48:57;7.40;99.90
3134;DHT22;1577;49.912;10.924;2023-12-20T08:51:23;7.50;99.90
3134;DHT22;1577;49.912;10.924;2023-12-20T08:53:51;7.60;99.90
3134;DHT22;1577;49.912;10.924;2023-12-20T08:56:16;7.90;99.90
3134;DHT22;1577;49.912;10.924;2023-12-20T08:58:43;8.10;99.90
3134;DHT22;1577;49.912;10.924;2023-12-20T09:01:09;8.20;99.90
3134;DHT22;1577;49.912;10.924;2023-12-20T09:03:35;8.30;99.90
3134;DHT22;1577;49.912;10.924;2023-12-20T09:06:00;8.40;99.90
3134;DHT22;1577;49.912;10.924;2023-12-20T09:08:26;8.60;99.90
3134;DHT22;1577;49.912;10.924;2023-12-20T09:10:52;8.90;99.90
3134;DHT22;1577;49.912;10.924;2023-12-20T09:13:17;8.80;99.90
3134;DHT22;1577;49.912;10.924;2023-12-20T09:15:43;8.60;99.90
3134;DHT22;1577;49.912;10.924;2023-12-20T09:18:08;8.30;99.90
3134;DHT22;1577;49.912;10.924;2023-12-20T09:20:35;8.00;99.90
3134;DHT22;1577;49.912;10.924;2023-12-20T09:23:00;7.70;99.90
3134;DHT22;1577;49.912;10.924;2023-12-20T09:25:26;7.40;99.90
3134;DHT22;1577;49.912;10.924;2023-12-20T09:27:52;7.30;99.90
3134;DHT22;1577;49.912;10.924;2023-12-20T09:30:18;7.10;99.90
3134;DHT22;1577;49.912;10.924;2023-12-20T09:32:45;7.10;99.90
3134;DHT22;1577;49.912;10.924;2023-12-20T09:35:11;7.10;99.90
3134;DHT22;1577;49.912;10.924;2023-12-20T09:37:36;7.10;99.90
3134;DHT22;1577;49.912;10.924;2023-12-20T09:40:03;7.10;99.90
3134;DHT22;1577;49.912;10.924;2023-12-20T09:43:03;7.10;99.90
3134;DHT22;1577;49.912;10.924;2023-12-20T09:45:25;7.00;99.90
3134;DHT22;1577;49.912;10.924;2023-12-20T09:47:54;6.90;99.90
3134;DHT22;1577;49.912;10.924;2023-12-20T09:50:21;6.80;99.90
3134;DHT22;1577;49.912;10.924;2023-12-20T09:52:51;6.80;99.90
3134;DHT22;1577;49.912;10.924;2023-12-20T09:55:18;6.80;99.90
3134;DHT22;1577;49.912;10.924;2023-12-20T09:57:47;6.70;99.90
3134;DHT22;1577;49.912;10.924;2023-12-20T10:00:13;6.70;99.90
3134;DHT22;1577;49.912;10.924;2023-12-20T10:02:50;6.80;99.90
3134;DHT22;1577;49.912;10.924;2023-12-20T10:05:17;6.90;99.90
3134;DHT22;1577;49.912;10.924;2023-12-20T10:07:45;7.00;99.90
3134;DHT22;1577;49.912;10.924;2023-12-20T10:10:15;7.00;99.90
3134;DHT22;1577;49.912;10.924;2023-12-20T10:13:01;7.00;99.90
3134;DHT22;1577;49.912;10.924;2023-12-20T10:15:27;7.00;99.90
3134;DHT22;1577;49.912;10.924;2023-12-20T10:17:52;7.00;99.90
3134;DHT22;1577;49.912;10.924;2023-12-20T10:20:20;7.00;99.90
3134;DHT22;1577;49.912;10.924;2023-12-20T10:22:45;7.10;99.90
3134;DHT22;1577;49.912;10.924;2023-12-20T10:25:12;7.20;99.90
3134;DHT22;1577;49.912;10.924;2023-12-20T10:27:37;7.30;99.90
3134;DHT22;1577;49.912;10.924;2023-12-20T10:30:03;7.30;99.90
3134;DHT22;1577;49.912;10.924;2023-12-20T10:32:31;7.40;99.90
3134;DHT22;1577;49.912;10.924;2023-12-20T10:34:57;7.30;99.90
3134;DHT22;1577;49.912;10.924;2023-12-20T10:37:22;7.30;99.90
3134;DHT22;1577;49.912;10.924;2023-12-20T10:39:53;7.30;99.90
3134;DHT22;1577;49.912;10.924;2023-12-20T10:42:22;7.30;99.90
3134;DHT22;1577;49.912;10.924;2023-12-20T10:44:49;7.30;99.90
3134;DHT22;1577;49.912;10.924;2023-12-20T10:47:15;7.20;99.90
3134;DHT22;1577;49.912;10.924;2023-12-20T10:49:42;7.20;99.90
3134;DHT22;1577;49.912;10.924;2023-12-20T10:52:09;7.20;99.90
3134;DHT22;1577;49.912;10.924;2023-12-20T10:54:34;7.10;99.90
3134;DHT22;1577;49.912;10.924;2023-12-20T10:57:04;7.10;99.90
3134;DHT22;1577;49.912;10.924;2023-12-20T10:59:32;7.10;99.90
3134;DHT22;1577;49.912;10.924;2023-12-20T11:01:59;7.20;99.90
3134;DHT22;1577;49.912;10.924;2023-12-20T11:04:44;7.20;99.90
3134;DHT22;1577;49.912;10.924;2023-12-20T11:09:57;7.20;99.90
3134;DHT22;1577;49.912;10.924;2023-12-20T11:15:14;7.10;99.90
3134;DHT22;1577;49.912;10.924;2023-12-20T11:17:40;7.10;99.90
3134;DHT22;1577;49.912;10.924;2023-12-20T11:20:10;7.10;99.90
3134;DHT22;1577;49.912;10.924;2023-12-20T11:22:40;7.10;99.90
3134;DHT22;1577;49.912;10.924;2023-12-20T11:25:17;7.10;99.90
3134;DHT22;1577;49.912;10.924;2023-12-20T11:27:43;7.10;99.90
3134;DHT22;1577;49.912;10.924;2023-12-20T11:30:09;7.20;99.90
3134;DHT22;1577;49.912;10.924;2023-12-20T11:32:36;7.20;99.90
3134;DHT22;1577;49.912;10.924;2023-12-20T11:35:17;7.10;99.90
3134;DHT22;1577;49.912;10.924;2023-12-20T11:37:45;7.10;99.90
3134;DHT22;1577;49.912;10.924;2023-12-20T11:40:16;7.20;99.90
3134;DHT22;1577;49.912;10.924;2023-12-20T11:42:48;7.30;99.90
3134;DHT22;1577;49.912;10.924;2023-12-20T11:45:16;7.50;99.90
3134;DHT22;1577;49.912;10.924;2023-12-20T11:47:46;7.60;99.90
3134;DHT22;1577;49.912;10.924;2023-12-20T11:50:12;7.50;99.90
3134;DHT22;1577;49.912;10.924;2023-12-20T11:52:38;7.50;99.90
3134;DHT22;1577;49.912;10.924;2023-12-20T11:55:04;7.50;99.90
3134;DHT22;1577;49.912;10.924;2023-12-20T11:57:30;7.50;99.90
3134;DHT22;1577;49.912;10.924;2023-12-20T11:59:56;7.50;99.90
3134;DHT22;1577;49.912;10.924;2023-12-20T12:02:22;7.50;99.90
3134;DHT22;1577;49.912;10.924;2023-12-20T12:04:49;7.50;99.90
3134;DHT22;1577;49.912;10.924;2023-12-20T12:07:16;7.40;99.90
3134;DHT22;1577;49.912;10.924;2023-12-20T12:09:42;7.40;99.90
3134;DHT22;1577;49.912;10.924;2023-12-20T12:12:08;7.40;99.90
3134;DHT22;1577;49.912;10.924;2023-12-20T12:14:34;7.40;99.90
3134;DHT22;1577;49.912;10.924;2023-12-20T12:17:02;7.30;99.90
3134;DHT22;1577;49.912;10.924;2023-12-20T12:19:29;7.30;99.90
3134;DHT22;1577;49.912;10.924;2023-12-20T12:22:07;7.10;99.90
3134;DHT22;1577;49.912;10.924;2023-12-20T12:24:36;7.10;99.90
3134;DHT22;1577;49.912;10.924;2023-12-20T12:27:01;7.00;99.90
3134;DHT22;1577;49.912;10.924;2023-12-20T12:29:27;7.00;99.90
3134;DHT22;1577;49.912;10.924;2023-12-20T12:31:53;7.00;99.90
3134;DHT22;1577;49.912;10.924;2023-12-20T12:34:18;7.00;99.90
3134;DHT22;1577;49.912;10.924;2023-12-20T12:36:44;7.00;99.90
3134;DHT22;1577;49.912;10.924;2023-12-20T12:39:17;6.90;99.90
3134;DHT22;1577;49.912;10.924;2023-12-20T12:41:43;6.80;99.90
3134;DHT22;1577;49.912;10.924;2023-12-20T12:44:08;6.70;99.90
3134;DHT22;1577;49.912;10.924;2023-12-20T12:46:34;6.70;99.90
3134;DHT22;1577;49.912;10.924;2023-12-20T12:49:00;6.80;99.90
3134;DHT22;1577;49.912;10.924;2023-12-20T12:51:25;6.80;99.90
3134;DHT22;1577;49.912;10.924;2023-12-20T12:53:51;6.70;99.90
3134;DHT22;1577;49.912;10.924;2023-12-20T12:56:17;6.80;99.90
3134;DHT22;1577;49.912;10.924;2023-12-20T12:58:42;6.80;99.90
3134;DHT22;1577;49.912;10.924;2023-12-20T13:01:08;6.80;99.90
3134;DHT22;1577;49.912;10.924;2023-12-20T13:03:35;6.80;99.90
3134;DHT22;1577;49.912;10.924;2023-12-20T13:06:01;6.80;99.90
3134;DHT22;1577;49.912;10.924;2023-12-20T13:08:27;6.80;99.90
3134;DHT22;1577;49.912;10.924;2023-12-20T13:10:53;6.80;99.90
3134;DHT22;1577;49.912;10.924;2023-12-20T13:13:18;6.70;99.90
3134;DHT22;1577;49.912;10.924;2023-12-20T13:15:44;6.80;99.90
3134;DHT22;1577;49.912;10.924;2023-12-20T13:18:18;6.80;99.90
3134;DHT22;1577;49.912;10.924;2023-12-20T13:20:44;6.80;99.90
3134;DHT22;1577;49.912;10.924;2023-12-20T13:23:10;6.80;99.90
3134;DHT22;1577;49.912;10.924;2023-12-20T13:25:35;6.80;99.90
3134;DHT22;1577;49.912;10.924;2023-12-20T13:28:01;6.70;99.90
3134;DHT22;1577;49.912;10.924;2023-12-20T13:30:28;6.70;99.90
3134;DHT22;1577;49.912;10.924;2023-12-20T13:32:54;6.70;99.90
3134;DHT22;1577;49.912;10.924;2023-12-20T13:35:19;6.70;99.90
3134;DHT22;1577;49.912;10.924;2023-12-20T13:37:46;6.80;99.90
3134;DHT22;1577;49.912;10.924;2023-12-20T13:40:11;6.80;99.90
3134;DHT22;1577;49.912;10.924;2023-12-20T13:42:38;6.80;99.90
3134;DHT22;1577;49.912;10.924;2023-12-20T13:45:04;6.80;99.90
3134;DHT22;1577;49.912;10.924;2023-12-20T13:47:31;6.90;99.90
3134;DHT22;1577;49.912;10.924;2023-12-20T13:49:56;6.90;99.90
3134;DHT22;1577;49.912;10.924;2023-12-20T13:52:22;6.80;99.90
3134;DHT22;1577;49.912;10.924;2023-12-20T13:54:47;6.80;99.90
3134;DHT22;1577;49.912;10.924;2023-12-20T13:57:13;6.80;99.90
3134;DHT22;1577;49.912;10.924;2023-12-20T13:59:38;6.80;99.90
3134;DHT22;1577;49.912;10.924;2023-12-20T14:02:04;6.80;99.90
3134;DHT22;1577;49.912;10.924;2023-12-20T14:04:30;6.90;99.90
3134;DHT22;1577;49.912;10.924;2023-12-20T14:06:56;6.80;99.90
3134;DHT22;1577;49.912;10.924;2023-12-20T14:09:22;6.80;99.90
3134;DHT22;1577;49.912;10.924;2023-12-20T14:11:48;6.90;99.90
3134;DHT22;1577;49.912;10.924;2023-12-20T14:14:14;6.90;99.90
3134;DHT22;1577;49.912;10.924;2023-12-20T14:16:39;6.80;99.90
3134;DHT22;1577;49.912;10.924;2023-12-20T14:19:05;6.90;99.90
3134;DHT22;1577;49.912;10.924;2023-12-20T14:21:34;7.00;99.90
3134;DHT22;1577;49.912;10.924;2023-12-20T14:24:00;6.90;99.90
3134;DHT22;1577;49.912;10.924;2023-12-20T14:26:26;6.90;99.90
3134;DHT22;1577;49.912;10.924;2023-12-20T14:28:53;6.90;99.90
3134;DHT22;1577;49.912;10.924;2023-12-20T14:31:18;6.90;99.90
3134;DHT22;1577;49.912;10.924;2023-12-20T14:33:44;6.90;99.90
3134;DHT22;1577;49.912;10.924;2023-12-20T14:36:11;6.80;99.90
3134;DHT22;1577;49.912;10.924;2023-12-20T14:38:37;6.80;99.90
3134;DHT22;1577;49.912;10.924;2023-12-20T14:41:03;6.80;99.90
3134;DHT22;1577;49.912;10.924;2023-12-20T14:43:29;6.70;99.90
3134;DHT22;1577;49.912;10.924;2023-12-20T14:45:55;6.70;99.90
3134;DHT22;1577;49.912;10.924;2023-12-20T14:48:21;6.70;99.90
3134;DHT22;1577;49.912;10.924;2023-12-20T14:50:47;6.70;99.90
3134;DHT22;1577;49.912;10.924;2023-12-20T14:53:14;6.80;99.90
3134;DHT22;1577;49.912;10.924;2023-12-20T14:55:42;6.70;99.90
3134;DHT22;1577;49.912;10.924;2023-12-20T14:58:07;6.70;99.90
3134;DHT22;1577;49.912;10.924;2023-12-20T15:00:33;6.70;99.90
3134;DHT22;1577;49.912;10.924;2023-12-20T15:02:59;6.60;99.90
3134;DHT22;1577;49.912;10.924;2023-12-20T15:05:25;6.70;99.90
3134;DHT22;1577;49.912;10.924;2023-12-20T15:07:51;6.60;99.90
3134;DHT22;1577;49.912;10.924;2023-12-20T15:10:18;6.60;99.90
3134;DHT22;1577;49.912;10.924;2023-12-20T15:12:44;6.60;99.90
3134;DHT22;1577;49.912;10.924;2023-12-20T15:15:10;6.60;99.90
3134;DHT22;1577;49.912;10.924;2023-12-20T15:17:36;6.60;99.90
3134;DHT22;1577;49.912;10.924;2023-12-20T15:20:02;6.60;99.90
3134;DHT22;1577;49.912;10.924;2023-12-20T15:22:30;6.60;99.90
3134;DHT22;1577;49.912;10.924;2023-12-20T15:24:55;6.60;99.90
3134;DHT22;1577;49.912;10.924;2023-12-20T15:27:21;6.60;99.90
3134;DHT22;1577;49.912;10.924;2023-12-20T15:29:46;6.60;99.90
3134;DHT22;1577;49.912;10.924;2023-12-20T15:32:14;6.50;99.90
3134;DHT22;1577;49.912;10.924;2023-12-20T15:34:39;6.60;99.90
3134;DHT22;1577;49.912;10.924;2023-12-20T15:37:05;6.60;99.90
3134;DHT22;1577;49.912;10.924;2023-12-20T15:39:30;6.60;99.90
3134;DHT22;1577;49.912;10.924;2023-12-20T15:41:56;6.60;99.90
3134;DHT22;1577;49.912;10.924;2023-12-20T15:44:21;6.60;99.90
3134;DHT22;1577;49.912;10.924;2023-12-20T15:46:47;6.60;99.90
3134;DHT22;1577;49.912;10.924;2023-12-20T15:49:13;6.60;99.90
3134;DHT22;1577;49.912;10.924;2023-12-20T15:51:40;6.60;99.90
3134;DHT22;1577;49.912;10.924;2023-12-20T15:54:05;6.50;99.90
3134;DHT22;1577;49.912;10.924;2023-12-20T15:56:33;6.50;99.90
3134;DHT22;1577;49.912;10.924;2023-12-20T15:58:59;6.50;99.90
3134;DHT22;1577;49.912;10.924;2023-12-20T16:01:25;6.60;99.90